Assinippi, Massachusetts
Current Conditions -  °F | °C
As of 4:35 AM on Saturday 20 Dec 2014 (Local Time) from KGHG Reporting Station
Overcast Overcast  
Wind Chill: -1°   Ceiling: 2400
Heat Index:   Visibility: 10mi
Dew Point: -2°   Wind: 5mph
Humidity: 81%   Direction: 320°NW
Pressure: 30.19"   Gusts: NA
Location:  42.1315°N, 70.8467°W
Report Text: KGHG 200935Z AUTO 32004KT 10SM BKN024 OVC029 01/M02 A3019 RMK AO2
Loading
Personal Weather Stations






























Interactive Weather Map New forecast layout! Learn more

10-Day Weather Forecast

Advertisements
Track Severe Weather on mobile